sensor_id;sensor_type;location;lat;lon;timestamp;temperature;humidity
1830;DHT22;914;48.118;11.600;2023-06-26T00:02:03;21.80;77.10
1830;DHT22;914;48.118;11.600;2023-06-26T00:04:28;22.00;76.30
1830;DHT22;914;48.118;11.600;2023-06-26T00:06:54;22.00;76.00
1830;DHT22;914;48.118;11.600;2023-06-26T00:09:20;22.00;75.90
1830;DHT22;914;48.118;11.600;2023-06-26T00:11:45;22.00;75.80
1830;DHT22;914;48.118;11.600;2023-06-26T00:14:11;22.00;76.00
1830;DHT22;914;48.118;11.600;2023-06-26T00:16:36;21.90;76.00
1830;DHT22;914;48.118;11.600;2023-06-26T00:19:02;21.90;76.40
1830;DHT22;914;48.118;11.600;2023-06-26T00:21:28;21.90;76.70
1830;DHT22;914;48.118;11.600;2023-06-26T00:23:53;21.80;76.20
1830;DHT22;914;48.118;11.600;2023-06-26T00:26:19;21.80;77.00
1830;DHT22;914;48.118;11.600;2023-06-26T00:28:44;21.70;77.80
1830;DHT22;914;48.118;11.600;2023-06-26T00:31:10;21.70;78.00
1830;DHT22;914;48.118;11.600;2023-06-26T00:33:36;21.60;78.00
1830;DHT22;914;48.118;11.600;2023-06-26T00:36:01;21.50;78.50
1830;DHT22;914;48.118;11.600;2023-06-26T00:38:27;21.50;79.10
1830;DHT22;914;48.118;11.600;2023-06-26T00:40:53;21.40;79.40
1830;DHT22;914;48.118;11.600;2023-06-26T00:43:20;21.30;79.70
1830;DHT22;914;48.118;11.600;2023-06-26T00:45:45;21.40;79.10
1830;DHT22;914;48.118;11.600;2023-06-26T00:48:11;21.40;79.10
1830;DHT22;914;48.118;11.600;2023-06-26T00:50:37;21.20;79.00
1830;DHT22;914;48.118;11.600;2023-06-26T00:53:03;21.20;79.30
1830;DHT22;914;48.118;11.600;2023-06-26T00:55:29;21.20;79.10
1830;DHT22;914;48.118;11.600;2023-06-26T00:57:55;21.10;78.70
1830;DHT22;914;48.118;11.600;2023-06-26T01:00:21;21.10;78.80
1830;DHT22;914;48.118;11.600;2023-06-26T01:02:47;21.10;78.70
1830;DHT22;914;48.118;11.600;2023-06-26T01:05:13;21.00;78.60
1830;DHT22;914;48.118;11.600;2023-06-26T01:07:47;21.00;78.60
1830;DHT22;914;48.118;11.600;2023-06-26T01:10:13;21.00;78.80
1830;DHT22;914;48.118;11.600;2023-06-26T01:12:39;20.90;78.30
1830;DHT22;914;48.118;11.600;2023-06-26T01:15:05;20.90;78.30
1830;DHT22;914;48.118;11.600;2023-06-26T01:17:31;21.00;78.30
1830;DHT22;914;48.118;11.600;2023-06-26T01:19:59;20.90;78.50
1830;DHT22;914;48.118;11.600;2023-06-26T01:22:31;20.70;79.00
1830;DHT22;914;48.118;11.600;2023-06-26T01:27:35;20.60;79.10
1830;DHT22;914;48.118;11.600;2023-06-26T01:30:02;20.60;79.20
1830;DHT22;914;48.118;11.600;2023-06-26T01:32:30;20.60;79.20
1830;DHT22;914;48.118;11.600;2023-06-26T01:34:57;20.60;79.20
1830;DHT22;914;48.118;11.600;2023-06-26T01:37:23;20.60;79.10
1830;DHT22;914;48.118;11.600;2023-06-26T01:39:48;20.70;79.10
1830;DHT22;914;48.118;11.600;2023-06-26T01:42:14;20.60;78.60
1830;DHT22;914;48.118;11.600;2023-06-26T01:44:44;20.50;78.90
1830;DHT22;914;48.118;11.600;2023-06-26T01:47:14;20.50;79.30
1830;DHT22;914;48.118;11.600;2023-06-26T01:50:09;20.40;79.00
1830;DHT22;914;48.118;11.600;2023-06-26T01:53:02;20.30;79.10
1830;DHT22;914;48.118;11.600;2023-06-26T01:55:42;20.30;79.20
1830;DHT22;914;48.118;11.600;2023-06-26T01:58:09;20.30;78.90
1830;DHT22;914;48.118;11.600;2023-06-26T02:00:36;20.30;79.10
1830;DHT22;914;48.118;11.600;2023-06-26T02:03:02;20.40;78.80
1830;DHT22;914;48.118;11.600;2023-06-26T02:05:30;20.40;78.50
1830;DHT22;914;48.118;11.600;2023-06-26T02:07:56;20.40;78.50
1830;DHT22;914;48.118;11.600;2023-06-26T02:10:22;20.50;77.60
1830;DHT22;914;48.118;11.600;2023-06-26T02:12:47;20.50;77.60
1830;DHT22;914;48.118;11.600;2023-06-26T02:15:13;20.60;77.70
1830;DHT22;914;48.118;11.600;2023-06-26T02:17:39;20.50;77.60
1830;DHT22;914;48.118;11.600;2023-06-26T02:20:05;20.50;77.50
1830;DHT22;914;48.118;11.600;2023-06-26T02:22:31;20.50;77.60
1830;DHT22;914;48.118;11.600;2023-06-26T02:24:57;20.50;77.40
1830;DHT22;914;48.118;11.600;2023-06-26T02:27:23;20.50;77.30
1830;DHT22;914;48.118;11.600;2023-06-26T02:29:48;20.50;76.90
1830;DHT22;914;48.118;11.600;2023-06-26T02:32:14;20.50;76.60
1830;DHT22;914;48.118;11.600;2023-06-26T02:34:39;20.50;76.80
1830;DHT22;914;48.118;11.600;2023-06-26T02:37:05;20.50;77.10
1830;DHT22;914;48.118;11.600;2023-06-26T02:39:33;20.40;78.00
1830;DHT22;914;48.118;11.600;2023-06-26T02:42:00;20.20;78.20
1830;DHT22;914;48.118;11.600;2023-06-26T02:44:25;20.10;78.90
1830;DHT22;914;48.118;11.600;2023-06-26T02:46:52;20.00;78.90
1830;DHT22;914;48.118;11.600;2023-06-26T02:49:18;19.90;79.30
1830;DHT22;914;48.118;11.600;2023-06-26T02:51:43;19.90;79.40
1830;DHT22;914;48.118;11.600;2023-06-26T02:54:09;19.90;78.70
1830;DHT22;914;48.118;11.600;2023-06-26T02:56:35;19.90;79.30
1830;DHT22;914;48.118;11.600;2023-06-26T02:59:00;19.90;79.30
1830;DHT22;914;48.118;11.600;2023-06-26T03:01:26;19.90;78.80
1830;DHT22;914;48.118;11.600;2023-06-26T03:03:51;19.90;79.20
1830;DHT22;914;48.118;11.600;2023-06-26T03:06:18;20.00;79.40
1830;DHT22;914;48.118;11.600;2023-06-26T03:08:43;20.00;79.00
1830;DHT22;914;48.118;11.600;2023-06-26T03:11:09;20.10;79.00
1830;DHT22;914;48.118;11.600;2023-06-26T03:13:36;20.10;79.20
1830;DHT22;914;48.118;11.600;2023-06-26T03:16:02;20.00;80.30
1830;DHT22;914;48.118;11.600;2023-06-26T03:18:28;20.00;79.10
1830;DHT22;914;48.118;11.600;2023-06-26T03:20:55;19.90;79.20
1830;DHT22;914;48.118;11.600;2023-06-26T03:23:21;19.90;78.90
1830;DHT22;914;48.118;11.600;2023-06-26T03:25:47;19.90;79.40
1830;DHT22;914;48.118;11.600;2023-06-26T03:28:13;19.70;80.10
1830;DHT22;914;48.118;11.600;2023-06-26T03:30:39;19.60;80.60
1830;DHT22;914;48.118;11.600;2023-06-26T03:33:05;19.50;80.80
1830;DHT22;914;48.118;11.600;2023-06-26T03:35:30;19.40;81.10
1830;DHT22;914;48.118;11.600;2023-06-26T03:37:57;19.40;81.50
1830;DHT22;914;48.118;11.600;2023-06-26T03:40:23;19.40;81.30
1830;DHT22;914;48.118;11.600;2023-06-26T03:42:48;19.40;81.20
1830;DHT22;914;48.118;11.600;2023-06-26T03:45:14;19.30;81.40
1830;DHT22;914;48.118;11.600;2023-06-26T03:47:40;19.40;81.40
1830;DHT22;914;48.118;11.600;2023-06-26T03:50:06;19.40;81.10
1830;DHT22;914;48.118;11.600;2023-06-26T03:52:31;19.30;81.30
1830;DHT22;914;48.118;11.600;2023-06-26T03:54:58;19.30;81.80
1830;DHT22;914;48.118;11.600;2023-06-26T03:57:23;19.30;82.30
1830;DHT22;914;48.118;11.600;2023-06-26T03:59:49;19.30;82.00
1830;DHT22;914;48.118;11.600;2023-06-26T04:02:15;19.30;81.90
1830;DHT22;914;48.118;11.600;2023-06-26T04:04:40;19.30;82.00
1830;DHT22;914;48.118;11.600;2023-06-26T04:07:06;19.30;81.90
1830;DHT22;914;48.118;11.600;2023-06-26T04:09:32;19.40;82.20
1830;DHT22;914;48.118;11.600;2023-06-26T04:11:57;19.50;81.70
1830;DHT22;914;48.118;11.600;2023-06-26T04:14:23;19.40;82.20
1830;DHT22;914;48.118;11.600;2023-06-26T04:16:48;19.40;82.60
1830;DHT22;914;48.118;11.600;2023-06-26T04:19:14;19.60;81.80
1830;DHT22;914;48.118;11.600;2023-06-26T04:21:40;19.60;81.40
1830;DHT22;914;48.118;11.600;2023-06-26T04:24:06;19.60;81.30
1830;DHT22;914;48.118;11.600;2023-06-26T04:26:31;19.60;81.50
1830;DHT22;914;48.118;11.600;2023-06-26T04:28:57;19.70;81.20
1830;DHT22;914;48.118;11.600;2023-06-26T04:31:23;19.70;81.60
1830;DHT22;914;48.118;11.600;2023-06-26T04:33:48;19.80;81.00
1830;DHT22;914;48.118;11.600;2023-06-26T04:36:20;19.90;81.60
1830;DHT22;914;48.118;11.600;2023-06-26T04:38:46;19.90;81.10
1830;DHT22;914;48.118;11.600;2023-06-26T04:41:13;20.00;80.80
1830;DHT22;914;48.118;11.600;2023-06-26T04:43:39;20.10;81.10
1830;DHT22;914;48.118;11.600;2023-06-26T04:46:05;20.20;80.70
1830;DHT22;914;48.118;11.600;2023-06-26T04:48:31;20.30;80.70
1830;DHT22;914;48.118;11.600;2023-06-26T04:50:57;20.20;80.20
1830;DHT22;914;48.118;11.600;2023-06-26T04:53:24;20.40;80.50
1830;DHT22;914;48.118;11.600;2023-06-26T04:55:51;20.50;80.80
1830;DHT22;914;48.118;11.600;2023-06-26T04:58:17;20.60;79.40
1830;DHT22;914;48.118;11.600;2023-06-26T05:00:42;20.70;79.60
1830;DHT22;914;48.118;11.600;2023-06-26T05:03:12;20.80;79.40
1830;DHT22;914;48.118;11.600;2023-06-26T05:05:38;20.90;78.20
1830;DHT22;914;48.118;11.600;2023-06-26T05:08:17;21.10;79.50
1830;DHT22;914;48.118;11.600;2023-06-26T05:10:43;21.20;78.40
1830;DHT22;914;48.118;11.600;2023-06-26T05:13:09;21.30;78.50
1830;DHT22;914;48.118;11.600;2023-06-26T05:15:35;21.40;79.10
1830;DHT22;914;48.118;11.600;2023-06-26T05:18:01;21.50;78.20
1830;DHT22;914;48.118;11.600;2023-06-26T05:20:26;21.70;78.00
1830;DHT22;914;48.118;11.600;2023-06-26T05:22:52;21.80;77.20
1830;DHT22;914;48.118;11.600;2023-06-26T05:25:18;21.90;77.70
1830;DHT22;914;48.118;11.600;2023-06-26T05:27:47;21.90;77.40
1830;DHT22;914;48.118;11.600;2023-06-26T05:30:13;22.10;76.80
1830;DHT22;914;48.118;11.600;2023-06-26T05:32:40;22.30;77.60
1830;DHT22;914;48.118;11.600;2023-06-26T05:35:06;22.50;77.20
1830;DHT22;914;48.118;11.600;2023-06-26T05:37:34;22.50;76.50
1830;DHT22;914;48.118;11.600;2023-06-26T05:40:01;22.60;76.20
1830;DHT22;914;48.118;11.600;2023-06-26T05:42:27;22.60;75.90
1830;DHT22;914;48.118;11.600;2023-06-26T05:44:53;22.80;76.30
1830;DHT22;914;48.118;11.600;2023-06-26T05:47:19;22.90;77.10
1830;DHT22;914;48.118;11.600;2023-06-26T05:49:44;23.00;77.80
1830;DHT22;914;48.118;11.600;2023-06-26T05:52:11;23.20;76.80
1830;DHT22;914;48.118;11.600;2023-06-26T05:54:37;23.30;75.40
1830;DHT22;914;48.118;11.600;2023-06-26T05:57:03;23.60;75.50
1830;DHT22;914;48.118;11.600;2023-06-26T05:59:31;23.70;75.60
1830;DHT22;914;48.118;11.600;2023-06-26T06:01:57;23.80;76.10
1830;DHT22;914;48.118;11.600;2023-06-26T06:04:23;23.80;73.70
1830;DHT22;914;48.118;11.600;2023-06-26T06:06:48;23.90;73.10
1830;DHT22;914;48.118;11.600;2023-06-26T06:09:14;24.00;74.00
1830;DHT22;914;48.118;11.600;2023-06-26T06:11:40;23.90;72.70
1830;DHT22;914;48.118;11.600;2023-06-26T06:14:05;24.10;72.40
1830;DHT22;914;48.118;11.600;2023-06-26T06:16:31;24.40;72.20
1830;DHT22;914;48.118;11.600;2023-06-26T06:18:56;24.90;71.70
1830;DHT22;914;48.118;11.600;2023-06-26T06:21:22;24.90;70.90
1830;DHT22;914;48.118;11.600;2023-06-26T06:23:48;24.80;71.70
1830;DHT22;914;48.118;11.600;2023-06-26T06:26:13;25.00;71.70
1830;DHT22;914;48.118;11.600;2023-06-26T06:28:39;25.30;71.50
1830;DHT22;914;48.118;11.600;2023-06-26T06:31:05;25.40;70.70
1830;DHT22;914;48.118;11.600;2023-06-26T06:33:31;25.50;70.90
1830;DHT22;914;48.118;11.600;2023-06-26T06:35:56;25.70;70.90
1830;DHT22;914;48.118;11.600;2023-06-26T06:38:22;25.70;70.20
1830;DHT22;914;48.118;11.600;2023-06-26T06:40:48;25.80;71.70
1830;DHT22;914;48.118;11.600;2023-06-26T06:43:14;26.00;69.40
1830;DHT22;914;48.118;11.600;2023-06-26T06:45:40;26.10;68.70
1830;DHT22;914;48.118;11.600;2023-06-26T06:48:05;26.10;68.80
1830;DHT22;914;48.118;11.600;2023-06-26T06:50:31;26.10;68.30
1830;DHT22;914;48.118;11.600;2023-06-26T06:52:57;26.20;68.70
1830;DHT22;914;48.118;11.600;2023-06-26T06:55:22;26.40;67.10
1830;DHT22;914;48.118;11.600;2023-06-26T06:57:49;26.60;67.00
1830;DHT22;914;48.118;11.600;2023-06-26T07:00:16;26.40;68.50
1830;DHT22;914;48.118;11.600;2023-06-26T07:02:45;26.50;69.40
1830;DHT22;914;48.118;11.600;2023-06-26T07:05:11;26.50;68.90
1830;DHT22;914;48.118;11.600;2023-06-26T07:07:38;26.50;68.60
1830;DHT22;914;48.118;11.600;2023-06-26T07:10:06;26.60;67.40
1830;DHT22;914;48.118;11.600;2023-06-26T07:12:33;26.60;66.40
1830;DHT22;914;48.118;11.600;2023-06-26T07:15:04;26.90;66.70
1830;DHT22;914;48.118;11.600;2023-06-26T07:17:33;26.80;65.60
1830;DHT22;914;48.118;11.600;2023-06-26T07:20:00;27.00;65.70
1830;DHT22;914;48.118;11.600;2023-06-26T07:22:26;27.10;65.60
1830;DHT22;914;48.118;11.600;2023-06-26T07:24:52;27.00;67.00
1830;DHT22;914;48.118;11.600;2023-06-26T07:27:18;27.20;66.50
1830;DHT22;914;48.118;11.600;2023-06-26T07:29:44;27.30;66.90
1830;DHT22;914;48.118;11.600;2023-06-26T07:32:10;27.80;66.70
1830;DHT22;914;48.118;11.600;2023-06-26T07:34:36;27.70;68.20
1830;DHT22;914;48.118;11.600;2023-06-26T07:37:02;27.80;65.90
1830;DHT22;914;48.118;11.600;2023-06-26T07:39:27;28.00;65.20
1830;DHT22;914;48.118;11.600;2023-06-26T07:41:53;27.90;65.30
1830;DHT22;914;48.118;11.600;2023-06-26T07:44:19;28.00;65.80
1830;DHT22;914;48.118;11.600;2023-06-26T07:46:44;28.00;66.30
1830;DHT22;914;48.118;11.600;2023-06-26T07:49:11;27.80;66.20
1830;DHT22;914;48.118;11.600;2023-06-26T07:51:37;27.90;67.00
1830;DHT22;914;48.118;11.600;2023-06-26T07:54:03;28.20;66.60
1830;DHT22;914;48.118;11.600;2023-06-26T07:56:28;28.10;67.60
1830;DHT22;914;48.118;11.600;2023-06-26T07:58:54;28.20;66.50
1830;DHT22;914;48.118;11.600;2023-06-26T08:01:20;28.50;66.10
1830;DHT22;914;48.118;11.600;2023-06-26T08:03:46;28.60;65.40
1830;DHT22;914;48.118;11.600;2023-06-26T08:06:11;28.60;65.60
1830;DHT22;914;48.118;11.600;2023-06-26T08:08:37;28.60;66.50
1830;DHT22;914;48.118;11.600;2023-06-26T08:11:02;28.40;65.70
1830;DHT22;914;48.118;11.600;2023-06-26T08:13:28;28.40;66.70
1830;DHT22;914;48.118;11.600;2023-06-26T08:15:54;28.30;66.60
1830;DHT22;914;48.118;11.600;2023-06-26T08:18:20;28.70;67.10
1830;DHT22;914;48.118;11.600;2023-06-26T08:20:45;28.90;66.70
1830;DHT22;914;48.118;11.600;2023-06-26T08:23:11;29.00;66.30
1830;DHT22;914;48.118;11.600;2023-06-26T08:25:37;28.90;65.80
1830;DHT22;914;48.118;11.600;2023-06-26T08:28:02;28.70;65.10
1830;DHT22;914;48.118;11.600;2023-06-26T08:30:28;29.20;65.30
1830;DHT22;914;48.118;11.600;2023-06-26T08:32:57;29.10;64.60
1830;DHT22;914;48.118;11.600;2023-06-26T08:35:23;29.20;65.50
1830;DHT22;914;48.118;11.600;2023-06-26T08:37:49;29.10;66.40
1830;DHT22;914;48.118;11.600;2023-06-26T08:40:17;29.40;63.70
1830;DHT22;914;48.118;11.600;2023-06-26T08:42:44;29.40;64.70
1830;DHT22;914;48.118;11.600;2023-06-26T08:45:10;29.70;63.80
1830;DHT22;914;48.118;11.600;2023-06-26T08:47:37;30.10;63.90
1830;DHT22;914;48.118;11.600;2023-06-26T08:50:13;29.50;63.30
1830;DHT22;914;48.118;11.600;2023-06-26T08:52:46;29.40;64.30
1830;DHT22;914;48.118;11.600;2023-06-26T08:55:15;30.00;62.50
1830;DHT22;914;48.118;11.600;2023-06-26T08:57:41;30.00;63.30
1830;DHT22;914;48.118;11.600;2023-06-26T09:00:07;30.10;64.20
1830;DHT22;914;48.118;11.600;2023-06-26T09:02:35;30.30;62.90
1830;DHT22;914;48.118;11.600;2023-06-26T09:05:02;29.90;62.40
1830;DHT22;914;48.118;11.600;2023-06-26T09:07:29;30.50;63.00
1830;DHT22;914;48.118;11.600;2023-06-26T09:09:56;30.40;60.60
1830;DHT22;914;48.118;11.600;2023-06-26T09:12:22;30.60;61.60
1830;DHT22;914;48.118;11.600;2023-06-26T09:14:47;30.60;62.00
1830;DHT22;914;48.118;11.600;2023-06-26T09:17:14;30.60;60.80
1830;DHT22;914;48.118;11.600;2023-06-26T09:19:40;30.20;59.70
1830;DHT22;914;48.118;11.600;2023-06-26T09:22:11;30.30;61.70
1830;DHT22;914;48.118;11.600;2023-06-26T09:24:37;30.90;59.60
1830;DHT22;914;48.118;11.600;2023-06-26T09:27:04;31.20;59.60
1830;DHT22;914;48.118;11.600;2023-06-26T09:29:29;30.90;59.20
1830;DHT22;914;48.118;11.600;2023-06-26T09:31:56;30.60;61.20
1830;DHT22;914;48.118;11.600;2023-06-26T09:34:21;30.60;61.00
1830;DHT22;914;48.118;11.600;2023-06-26T09:36:47;30.80;59.90
1830;DHT22;914;48.118;11.600;2023-06-26T09:39:14;31.10;58.90
1830;DHT22;914;48.118;11.600;2023-06-26T09:41:42;31.30;60.50
1830;DHT22;914;48.118;11.600;2023-06-26T09:44:11;31.30;59.50
1830;DHT22;914;48.118;11.600;2023-06-26T09:46:38;31.10;59.60
1830;DHT22;914;48.118;11.600;2023-06-26T09:49:09;31.30;59.60
1830;DHT22;914;48.118;11.600;2023-06-26T09:51:37;31.20;59.60
1830;DHT22;914;48.118;11.600;2023-06-26T09:54:04;31.00;59.40
1830;DHT22;914;48.118;11.600;2023-06-26T09:56:30;30.60;58.70
1830;DHT22;914;48.118;11.600;2023-06-26T09:58:57;31.10;58.60
1830;DHT22;914;48.118;11.600;2023-06-26T10:01:24;31.10;57.70
1830;DHT22;914;48.118;11.600;2023-06-26T10:03:50;30.80;57.00
1830;DHT22;914;48.118;11.600;2023-06-26T10:06:19;30.60;56.70
1830;DHT22;914;48.118;11.600;2023-06-26T10:08:48;30.60;56.80
1830;DHT22;914;48.118;11.600;2023-06-26T10:11:16;30.50;57.40
1830;DHT22;914;48.118;11.600;2023-06-26T10:13:45;30.50;57.60
1830;DHT22;914;48.118;11.600;2023-06-26T10:16:18;30.70;58.50
1830;DHT22;914;48.118;11.600;2023-06-26T10:18:45;30.90;57.00
1830;DHT22;914;48.118;11.600;2023-06-26T10:21:13;31.30;56.60
1830;DHT22;914;48.118;11.600;2023-06-26T10:23:42;31.40;56.60
1830;DHT22;914;48.118;11.600;2023-06-26T10:26:09;31.60;56.10
1830;DHT22;914;48.118;11.600;2023-06-26T10:28:37;31.50;55.40
1830;DHT22;914;48.118;11.600;2023-06-26T10:31:04;31.00;55.80
1830;DHT22;914;48.118;11.600;2023-06-26T10:33:31;30.80;55.80
1830;DHT22;914;48.118;11.600;2023-06-26T10:36:18;31.10;56.40
1830;DHT22;914;48.118;11.600;2023-06-26T10:38:52;31.30;55.50
1830;DHT22;914;48.118;11.600;2023-06-26T10:41:21;31.80;55.50
1830;DHT22;914;48.118;11.600;2023-06-26T10:44:08;32.10;55.40
1830;DHT22;914;48.118;11.600;2023-06-26T10:46:54;32.20;55.30
1830;DHT22;914;48.118;11.600;2023-06-26T10:49:25;32.20;54.20
1830;DHT22;914;48.118;11.600;2023-06-26T10:51:51;32.40;54.40
1830;DHT22;914;48.118;11.600;2023-06-26T10:54:19;32.10;54.90
1830;DHT22;914;48.118;11.600;2023-06-26T10:56:47;31.90;55.00
1830;DHT22;914;48.118;11.600;2023-06-26T10:59:18;32.20;54.70
1830;DHT22;914;48.118;11.600;2023-06-26T11:01:46;32.10;55.00
1830;DHT22;914;48.118;11.600;2023-06-26T11:04:14;32.10;54.70
1830;DHT22;914;48.118;11.600;2023-06-26T11:06:45;31.50;54.60
1830;DHT22;914;48.118;11.600;2023-06-26T11:09:13;31.30;55.60
1830;DHT22;914;48.118;11.600;2023-06-26T11:14:19;32.20;54.20
1830;DHT22;914;48.118;11.600;2023-06-26T11:16:45;31.90;54.70
1830;DHT22;914;48.118;11.600;2023-06-26T11:19:11;31.50;55.10
1830;DHT22;914;48.118;11.600;2023-06-26T11:21:38;31.80;55.50
1830;DHT22;914;48.118;11.600;2023-06-26T11:24:09;31.70;55.50
1830;DHT22;914;48.118;11.600;2023-06-26T11:26:42;31.90;55.00
1830;DHT22;914;48.118;11.600;2023-06-26T11:29:09;32.30;55.20
1830;DHT22;914;48.118;11.600;2023-06-26T11:31:38;32.20;54.70
1830;DHT22;914;48.118;11.600;2023-06-26T11:34:13;32.10;55.40
1830;DHT22;914;48.118;11.600;2023-06-26T11:36:42;31.90;54.90
1830;DHT22;914;48.118;11.600;2023-06-26T11:39:08;31.60;55.00
1830;DHT22;914;48.118;11.600;2023-06-26T11:41:38;31.80;54.40
1830;DHT22;914;48.118;11.600;2023-06-26T11:44:09;31.60;55.50
1830;DHT22;914;48.118;11.600;2023-06-26T11:46:36;31.60;55.00
1830;DHT22;914;48.118;11.600;2023-06-26T11:49:06;31.50;55.10
1830;DHT22;914;48.118;11.600;2023-06-26T11:51:32;31.60;56.10
1830;DHT22;914;48.118;11.600;2023-06-26T11:54:01;31.30;56.00
1830;DHT22;914;48.118;11.600;2023-06-26T11:56:29;31.70;56.40
1830;DHT22;914;48.118;11.600;2023-06-26T12:01:40;31.80;56.50
1830;DHT22;914;48.118;11.600;2023-06-26T12:04:08;32.10;56.40
1830;DHT22;914;48.118;11.600;2023-06-26T12:06:35;32.30;56.30
1830;DHT22;914;48.118;11.600;2023-06-26T12:09:04;32.60;55.60
1830;DHT22;914;48.118;11.600;2023-06-26T12:11:32;32.80;55.00
1830;DHT22;914;48.118;11.600;2023-06-26T12:13:58;33.40;54.80
1830;DHT22;914;48.118;11.600;2023-06-26T12:16:24;33.30;53.30
1830;DHT22;914;48.118;11.600;2023-06-26T12:18:51;33.40;53.30
1830;DHT22;914;48.118;11.600;2023-06-26T12:21:44;33.10;53.90
1830;DHT22;914;48.118;11.600;2023-06-26T12:24:18;33.10;54.20
1830;DHT22;914;48.118;11.600;2023-06-26T12:26:45;33.40;53.30
1830;DHT22;914;48.118;11.600;2023-06-26T12:29:16;33.00;53.00
1830;DHT22;914;48.118;11.600;2023-06-26T12:31:49;32.80;53.20
1830;DHT22;914;48.118;11.600;2023-06-26T12:34:21;32.70;54.70
1830;DHT22;914;48.118;11.600;2023-06-26T12:36:50;32.80;54.80
1830;DHT22;914;48.118;11.600;2023-06-26T12:39:18;33.30;55.20
1830;DHT22;914;48.118;11.600;2023-06-26T12:41:49;33.40;54.20
1830;DHT22;914;48.118;11.600;2023-06-26T12:44:18;33.40;54.00
1830;DHT22;914;48.118;11.600;2023-06-26T12:46:43;33.30;54.10
1830;DHT22;914;48.118;11.600;2023-06-26T12:49:12;33.90;53.90
1830;DHT22;914;48.118;11.600;2023-06-26T12:51:38;34.60;52.60
1830;DHT22;914;48.118;11.600;2023-06-26T12:54:05;35.70;51.90
1830;DHT22;914;48.118;11.600;2023-06-26T12:56:31;37.10;50.30
1830;DHT22;914;48.118;11.600;2023-06-26T12:58:57;37.00;50.40
1830;DHT22;914;48.118;11.600;2023-06-26T13:01:22;37.10;49.50
1830;DHT22;914;48.118;11.600;2023-06-26T13:03:50;37.40;48.70
1830;DHT22;914;48.118;11.600;2023-06-26T13:06:17;38.00;47.90
1830;DHT22;914;48.118;11.600;2023-06-26T13:08:43;36.50;47.50
1830;DHT22;914;48.118;11.600;2023-06-26T13:11:10;36.30;48.60
1830;DHT22;914;48.118;11.600;2023-06-26T13:13:36;35.90;48.40
1830;DHT22;914;48.118;11.600;2023-06-26T13:16:01;36.60;50.00
1830;DHT22;914;48.118;11.600;2023-06-26T13:18:28;37.10;48.80
1830;DHT22;914;48.118;11.600;2023-06-26T13:20:53;36.40;48.90
1830;DHT22;914;48.118;11.600;2023-06-26T13:23:19;36.50;48.90
1830;DHT22;914;48.118;11.600;2023-06-26T13:25:46;36.60;49.20
1830;DHT22;914;48.118;11.600;2023-06-26T13:28:12;36.80;49.30
1830;DHT22;914;48.118;11.600;2023-06-26T13:30:37;36.50;49.70
1830;DHT22;914;48.118;11.600;2023-06-26T13:33:04;36.90;49.60
1830;DHT22;914;48.118;11.600;2023-06-26T13:35:30;37.70;49.60
1830;DHT22;914;48.118;11.600;2023-06-26T13:37:55;38.20;48.80
1830;DHT22;914;48.118;11.600;2023-06-26T13:40:22;38.00;48.30
1830;DHT22;914;48.118;11.600;2023-06-26T13:42:48;37.50;48.50
1830;DHT22;914;48.118;11.600;2023-06-26T13:45:14;36.90;48.80
1830;DHT22;914;48.118;11.600;2023-06-26T13:47:42;36.30;48.80
1830;DHT22;914;48.118;11.600;2023-06-26T13:50:09;36.10;49.20
1830;DHT22;914;48.118;11.600;2023-06-26T13:52:35;35.20;50.50
1830;DHT22;914;48.118;11.600;2023-06-26T13:55:01;34.60;51.00
1830;DHT22;914;48.118;11.600;2023-06-26T13:57:30;34.10;51.60
1830;DHT22;914;48.118;11.600;2023-06-26T13:59:55;33.90;52.60
1830;DHT22;914;48.118;11.600;2023-06-26T14:02:22;33.50;52.70
1830;DHT22;914;48.118;11.600;2023-06-26T14:04:48;33.10;53.50
1830;DHT22;914;48.118;11.600;2023-06-26T14:07:15;32.70;54.20
1830;DHT22;914;48.118;11.600;2023-06-26T14:09:41;32.70;54.20
1830;DHT22;914;48.118;11.600;2023-06-26T14:12:07;32.90;53.80
1830;DHT22;914;48.118;11.600;2023-06-26T14:14:33;32.90;54.90
1830;DHT22;914;48.118;11.600;2023-06-26T14:16:59;33.40;54.20
1830;DHT22;914;48.118;11.600;2023-06-26T14:19:25;33.50;54.50
1830;DHT22;914;48.118;11.600;2023-06-26T14:21:51;33.60;54.20
1830;DHT22;914;48.118;11.600;2023-06-26T14:24:17;33.40;53.10
1830;DHT22;914;48.118;11.600;2023-06-26T14:26:43;33.40;54.10
1830;DHT22;914;48.118;11.600;2023-06-26T14:29:08;33.80;53.80
1830;DHT22;914;48.118;11.600;2023-06-26T14:31:34;34.20;53.80
1830;DHT22;914;48.118;11.600;2023-06-26T14:34:00;34.80;51.90
1830;DHT22;914;48.118;11.600;2023-06-26T14:36:25;34.80;51.80
1830;DHT22;914;48.118;11.600;2023-06-26T14:38:52;34.60;52.50
1830;DHT22;914;48.118;11.600;2023-06-26T14:41:18;34.80;51.50
1830;DHT22;914;48.118;11.600;2023-06-26T14:43:45;34.00;52.40
1830;DHT22;914;48.118;11.600;2023-06-26T14:46:12;33.90;53.90
1830;DHT22;914;48.118;11.600;2023-06-26T14:48:38;34.30;53.20
1830;DHT22;914;48.118;11.600;2023-06-26T14:51:03;34.40;52.40
1830;DHT22;914;48.118;11.600;2023-06-26T14:53:30;34.60;52.70
1830;DHT22;914;48.118;11.600;2023-06-26T14:55:56;34.10;51.90
1830;DHT22;914;48.118;11.600;2023-06-26T14:58:22;34.00;52.90
1830;DHT22;914;48.118;11.600;2023-06-26T15:00:48;34.30;51.90
1830;DHT22;914;48.118;11.600;2023-06-26T15:03:13;34.10;52.20
1830;DHT22;914;48.118;11.600;2023-06-26T15:05:40;34.00;52.10
1830;DHT22;914;48.118;11.600;2023-06-26T15:08:06;33.80;53.00
1830;DHT22;914;48.118;11.600;2023-06-26T15:10:31;34.00;52.60
1830;DHT22;914;48.118;11.600;2023-06-26T15:12:57;33.90;53.70
1830;DHT22;914;48.118;11.600;2023-06-26T15:15:24;34.00;53.60
1830;DHT22;914;48.118;11.600;2023-06-26T15:17:49;34.10;53.00
1830;DHT22;914;48.118;11.600;2023-06-26T15:20:15;33.90;52.70
1830;DHT22;914;48.118;11.600;2023-06-26T15:22:42;33.70;52.40
1830;DHT22;914;48.118;11.600;2023-06-26T15:25:08;33.50;52.30
1830;DHT22;914;48.118;11.600;2023-06-26T15:27:33;33.50;52.70
1830;DHT22;914;48.118;11.600;2023-06-26T15:30:02;33.60;52.60
1830;DHT22;914;48.118;11.600;2023-06-26T15:32:28;33.40;52.70
1830;DHT22;914;48.118;11.600;2023-06-26T15:34:54;33.10;53.10
1830;DHT22;914;48.118;11.600;2023-06-26T15:37:19;33.00;53.30
1830;DHT22;914;48.118;11.600;2023-06-26T15:39:46;33.10;53.60
1830;DHT22;914;48.118;11.600;2023-06-26T15:42:12;33.10;53.50
1830;DHT22;914;48.118;11.600;2023-06-26T15:44:37;32.90;53.70
1830;DHT22;914;48.118;11.600;2023-06-26T15:47:03;32.60;54.00
1830;DHT22;914;48.118;11.600;2023-06-26T15:49:29;32.60;54.50
1830;DHT22;914;48.118;11.600;2023-06-26T15:51:55;32.50;54.10
1830;DHT22;914;48.118;11.600;2023-06-26T15:54:20;32.70;54.10
1830;DHT22;914;48.118;11.600;2023-06-26T15:56:46;32.30;55.80
1830;DHT22;914;48.118;11.600;2023-06-26T15:59:12;32.00;55.70
1830;DHT22;914;48.118;11.600;2023-06-26T16:01:38;32.00;55.80
1830;DHT22;914;48.118;11.600;2023-06-26T16:04:04;31.80;56.20
1830;DHT22;914;48.118;11.600;2023-06-26T16:06:29;31.60;56.80
1830;DHT22;914;48.118;11.600;2023-06-26T16:08:56;31.30;58.10